createdAt,value
2022-12-11T00:00:53.702Z,99356.20
2022-12-11T00:03:46.968Z,99353.00
2022-12-11T00:06:23.000Z,99346.00
2022-12-11T00:08:57.836Z,99346.80
2022-12-11T00:11:30.816Z,99344.00
2022-12-11T00:14:03.764Z,99347.40
2022-12-11T00:16:36.874Z,99346.80
2022-12-11T00:19:10.246Z,99351.60
2022-12-11T00:21:43.082Z,99353.80
2022-12-11T00:24:16.004Z,99350.60
2022-12-11T00:26:48.843Z,99347.80
2022-12-11T00:29:21.703Z,99347.00
2022-12-11T00:31:54.535Z,99344.00
2022-12-11T00:34:27.709Z,99346.60
2022-12-11T00:37:00.894Z,99348.40
2022-12-11T00:39:33.770Z,99351.00
2022-12-11T00:42:06.813Z,99358.80
2022-12-11T00:44:40.154Z,99359.40
2022-12-11T00:47:13.978Z,99362.20
2022-12-11T00:49:49.961Z,99360.40
2022-12-11T00:52:23.059Z,99356.80
2022-12-11T00:54:55.956Z,99358.40
2022-12-11T00:57:28.861Z,99362.40
2022-12-11T01:00:01.782Z,99352.40
2022-12-11T01:02:34.829Z,99345.20
2022-12-11T01:05:09.384Z,99341.80
2022-12-11T01:07:42.438Z,99344.20
2022-12-11T01:10:25.785Z,99346.60
2022-12-11T01:13:01.093Z,99353.20
2022-12-11T01:15:41.117Z,99358.60
2022-12-11T01:18:16.091Z,99360.40
2022-12-11T01:20:49.073Z,99362.40
2022-12-11T01:23:21.933Z,99360.00
2022-12-11T01:25:54.715Z,99364.80
2022-12-11T01:28:27.598Z,99363.40
2022-12-11T01:31:00.549Z,99362.20
2022-12-11T01:33:33.660Z,99364.40
2022-12-11T01:36:10.832Z,99359.40
2022-12-11T01:38:43.816Z,99361.00
2022-12-11T01:41:16.761Z,99363.60
2022-12-11T01:44:05.892Z,99357.60
2022-12-11T01:46:39.988Z,99351.00
2022-12-11T01:49:16.578Z,99348.60
2022-12-11T01:51:54.554Z,99354.80
2022-12-11T01:54:29.754Z,99351.80
2022-12-11T01:57:06.985Z,99353.00
2022-12-11T01:59:44.401Z,99351.00
2022-12-11T02:02:22.996Z,99347.40
2022-12-11T02:04:55.963Z,99342.40
2022-12-11T02:07:29.012Z,99339.20
2022-12-11T02:10:01.900Z,99330.40
2022-12-11T02:12:44.980Z,99320.40
2022-12-11T02:15:26.745Z,99318.80
2022-12-11T02:18:11.296Z,99311.80
2022-12-11T02:20:50.870Z,99304.40
2022-12-11T02:24:01.682Z,99305.00
2022-12-11T02:26:56.187Z,99307.00
2022-12-11T02:29:36.912Z,99299.60
2022-12-11T02:32:16.333Z,99302.40
2022-12-11T02:34:54.659Z,99297.60
2022-12-11T02:37:32.462Z,99296.60
2022-12-11T02:40:08.929Z,99300.60
2022-12-11T02:42:44.852Z,99306.80
2022-12-11T02:45:20.621Z,99307.60
2022-12-11T02:47:54.139Z,99310.40
2022-12-11T02:50:28.617Z,99316.40
2022-12-11T02:53:04.384Z,99316.00
2022-12-11T02:55:40.178Z,99305.40
2022-12-11T02:58:17.553Z,99305.80
2022-12-11T03:00:51.233Z,99310.00
2022-12-11T03:03:24.932Z,99305.60
2022-12-11T03:05:58.409Z,99313.80
2022-12-11T03:08:31.234Z,99319.20
2022-12-11T03:11:04.194Z,99318.80
2022-12-11T03:13:37.163Z,99317.40
2022-12-11T03:16:17.686Z,99315.00
2022-12-11T03:19:00.563Z,99318.80
2022-12-11T03:21:41.372Z,99323.60
2022-12-11T03:24:21.713Z,99328.00
2022-12-11T03:27:04.511Z,99332.40
2022-12-11T03:29:48.149Z,99326.20
2022-12-11T03:32:24.683Z,99324.40
2022-12-11T03:35:02.800Z,99326.00
2022-12-11T03:37:40.505Z,99327.60
2022-12-11T03:40:19.014Z,99326.80
2022-12-11T03:42:55.994Z,99330.20
2022-12-11T03:45:31.082Z,99333.40
2022-12-11T03:48:04.914Z,99329.20
2022-12-11T03:50:38.757Z,99327.20
2022-12-11T03:53:11.958Z,99323.60
2022-12-11T03:55:45.050Z,99318.40
2022-12-11T03:58:18.080Z,99321.20
2022-12-11T04:00:51.331Z,99322.60
2022-12-11T04:03:24.274Z,99316.80
2022-12-11T04:05:59.060Z,99313.80
2022-12-11T04:08:31.945Z,99299.00
2022-12-11T04:11:23.224Z,99298.40
2022-12-11T04:14:09.833Z,99299.60
2022-12-11T04:16:42.827Z,99299.60
2022-12-11T04:19:33.675Z,99301.40
2022-12-11T04:22:20.541Z,99298.40
2022-12-11T04:24:53.486Z,99300.80
2022-12-11T04:27:43.810Z,99298.00
2022-12-11T04:30:21.763Z,99297.00
2022-12-11T04:32:56.100Z,99289.00
2022-12-11T04:35:28.971Z,99287.60
2022-12-11T04:38:02.354Z,99285.80
2022-12-11T04:40:35.250Z,99288.80
2022-12-11T04:43:08.187Z,99290.20
2022-12-11T04:45:41.071Z,99286.40
2022-12-11T04:48:13.914Z,99282.20
2022-12-11T04:50:47.596Z,99279.80
2022-12-11T04:53:20.542Z,99272.40
2022-12-11T04:55:53.641Z,99279.00
2022-12-11T04:58:27.206Z,99281.20
2022-12-11T05:01:00.021Z,99282.20
2022-12-11T05:03:32.825Z,99277.60
2022-12-11T05:06:06.132Z,99279.40
2022-12-11T05:08:41.508Z,99278.80
2022-12-11T05:11:16.739Z,99272.60
2022-12-11T05:13:49.776Z,99273.00
2022-12-11T05:16:22.590Z,99274.00
2022-12-11T05:18:55.606Z,99275.60
2022-12-11T05:21:34.652Z,99273.00
2022-12-11T05:24:09.944Z,99264.40
2022-12-11T05:26:42.741Z,99269.40
2022-12-11T05:29:15.580Z,99264.40
2022-12-11T05:31:48.426Z,99265.20
2022-12-11T05:34:21.342Z,99271.40
2022-12-11T05:36:54.141Z,99273.40
2022-12-11T05:39:27.002Z,99265.40
2022-12-11T05:41:59.904Z,99269.20
2022-12-11T05:44:32.776Z,99265.20
2022-12-11T05:47:05.654Z,99265.80
2022-12-11T05:49:38.811Z,99258.60
2022-12-11T05:52:11.769Z,99262.00
2022-12-11T05:54:45.089Z,99265.00
2022-12-11T05:57:17.912Z,99262.00
2022-12-11T05:59:50.806Z,99267.60
2022-12-11T06:02:23.799Z,99260.60
2022-12-11T06:04:56.974Z,99264.80
2022-12-11T06:07:29.846Z,99273.40
2022-12-11T06:10:02.710Z,99273.20
2022-12-11T06:12:35.536Z,99271.40
2022-12-11T06:15:09.924Z,99276.60
2022-12-11T06:17:42.840Z,99279.60
2022-12-11T06:20:16.321Z,99280.20
2022-12-11T06:22:49.316Z,99278.80
2022-12-11T06:25:22.262Z,99280.20
2022-12-11T06:27:55.367Z,99289.00
2022-12-11T06:30:38.898Z,99291.40
2022-12-11T06:33:12.331Z,99291.80
2022-12-11T06:35:45.267Z,99301.80
2022-12-11T06:38:18.177Z,99303.20
2022-12-11T06:40:58.083Z,99304.20
2022-12-11T06:43:30.933Z,99304.40
2022-12-11T06:46:06.794Z,99313.60
2022-12-11T06:48:40.378Z,99309.20
2022-12-11T06:51:15.805Z,99305.80
2022-12-11T06:53:52.068Z,99308.60
2022-12-11T06:56:25.692Z,99306.40
2022-12-11T06:59:02.846Z,99310.40
2022-12-11T07:01:38.601Z,99316.80
2022-12-11T07:04:12.193Z,99316.80
2022-12-11T07:06:45.003Z,99317.60
2022-12-11T07:09:17.856Z,99314.40
2022-12-11T07:11:52.516Z,99310.80
2022-12-11T07:14:25.538Z,99313.20
2022-12-11T07:16:58.396Z,99317.60
2022-12-11T07:19:31.615Z,99316.40
2022-12-11T07:22:04.490Z,99311.00
2022-12-11T07:24:37.388Z,99313.60
2022-12-11T07:27:10.379Z,99320.20
2022-12-11T07:29:43.372Z,99320.80
2022-12-11T07:32:16.456Z,99312.40
2022-12-11T07:34:51.986Z,99311.40
2022-12-11T07:37:25.317Z,99318.60
2022-12-11T07:39:58.124Z,99324.40
2022-12-11T07:42:31.192Z,99323.00
2022-12-11T07:45:04.237Z,99324.60
2022-12-11T07:47:37.718Z,99321.60
2022-12-11T07:50:11.753Z,99316.60
2022-12-11T07:52:44.722Z,99314.00
2022-12-11T07:55:17.674Z,99311.60
2022-12-11T07:57:50.599Z,99308.00
2022-12-11T08:00:24.154Z,99316.60
2022-12-11T08:02:56.936Z,99310.40
2022-12-11T08:05:29.828Z,99308.20
2022-12-11T08:08:02.777Z,99310.60
2022-12-11T08:10:35.653Z,99314.60
2022-12-11T08:13:08.449Z,99323.40
2022-12-11T08:15:41.921Z,99324.20
2022-12-11T08:18:14.758Z,99323.60
2022-12-11T08:20:47.656Z,99319.60
2022-12-11T08:23:20.494Z,99323.20
2022-12-11T08:25:53.325Z,99317.60
2022-12-11T08:28:27.356Z,99311.60
2022-12-11T08:31:01.052Z,99310.80
2022-12-11T08:33:33.898Z,99307.20
2022-12-11T08:36:11.194Z,99311.80
2022-12-11T08:38:44.431Z,99313.40
2022-12-11T08:41:20.543Z,99311.20
2022-12-11T08:43:55.432Z,99309.80
2022-12-11T08:46:30.846Z,99310.00
2022-12-11T08:49:03.751Z,99308.00
2022-12-11T08:51:36.799Z,99308.20
2022-12-11T08:54:11.012Z,99307.20
2022-12-11T08:56:43.837Z,99303.60
2022-12-11T08:59:18.652Z,99313.00
2022-12-11T09:01:51.592Z,99318.40
2022-12-11T09:04:24.760Z,99324.20
2022-12-11T09:06:57.667Z,99320.80
2022-12-11T09:09:30.503Z,99318.00
2022-12-11T09:12:04.874Z,99314.20
2022-12-11T09:14:37.706Z,99315.00
2022-12-11T09:17:10.680Z,99311.40
2022-12-11T09:19:43.624Z,99305.20
2022-12-11T09:22:17.204Z,99299.20
2022-12-11T09:24:50.166Z,99301.00
2022-12-11T09:27:23.985Z,99295.40
2022-12-11T09:29:56.808Z,99291.00
2022-12-11T09:32:30.603Z,99285.40
2022-12-11T09:35:03.457Z,99287.60
2022-12-11T09:37:37.661Z,99276.60
2022-12-11T09:40:14.109Z,99273.00
2022-12-11T09:42:55.697Z,99269.60
2022-12-11T09:45:29.016Z,99265.20
2022-12-11T09:48:03.725Z,99265.00
2022-12-11T09:50:37.234Z,99260.80
2022-12-11T09:53:19.884Z,99261.40
2022-12-11T09:56:02.539Z,99256.40
2022-12-11T09:58:48.618Z,99257.20
2022-12-11T10:01:28.281Z,99253.80
2022-12-11T10:04:20.391Z,99251.00
2022-12-11T10:06:59.835Z,99247.00
2022-12-11T10:09:41.462Z,99250.60
2022-12-11T10:12:28.501Z,99255.60
2022-12-11T10:15:20.257Z,99249.20
2022-12-11T10:17:58.633Z,99245.60
2022-12-11T10:20:39.592Z,99245.40
2022-12-11T10:23:23.963Z,99238.80
2022-12-11T10:26:05.147Z,99232.00
2022-12-11T10:28:38.748Z,99232.40
2022-12-11T10:31:21.492Z,99222.20
2022-12-11T10:34:03.357Z,99223.40
2022-12-11T10:36:40.699Z,99224.20
2022-12-11T10:39:19.012Z,99219.40
2022-12-11T10:41:53.494Z,99227.00
2022-12-11T10:44:29.695Z,99215.60
2022-12-11T10:47:11.700Z,99219.00
2022-12-11T10:49:59.198Z,99218.40
2022-12-11T10:52:37.571Z,99217.80
2022-12-11T10:55:22.610Z,99225.00
2022-12-11T10:58:05.070Z,99221.00
2022-12-11T11:00:42.400Z,99210.80
2022-12-11T11:03:27.869Z,99214.80
2022-12-11T11:06:16.532Z,99217.00
2022-12-11T11:08:51.953Z,99208.40
2022-12-11T11:11:34.259Z,99205.80
2022-12-11T11:14:17.882Z,99205.40
2022-12-11T11:16:52.657Z,99201.60
2022-12-11T11:19:33.810Z,99196.20
2022-12-11T11:22:11.530Z,99195.80
2022-12-11T11:24:47.692Z,99191.60
2022-12-11T11:27:32.550Z,99186.00
2022-12-11T11:30:18.669Z,99183.00
2022-12-11T11:32:55.284Z,99178.20
2022-12-11T11:35:30.137Z,99177.00
2022-12-11T11:38:18.675Z,99178.00
2022-12-11T11:41:04.981Z,99181.60
2022-12-11T11:43:47.726Z,99178.40
2022-12-11T11:46:26.964Z,99174.40
2022-12-11T11:49:10.175Z,99167.00
2022-12-11T11:51:48.953Z,99174.60
2022-12-11T11:54:32.863Z,99170.60
2022-12-11T11:57:15.494Z,99168.80
2022-12-11T11:59:55.533Z,99168.40
2022-12-11T12:02:28.924Z,99166.80
2022-12-11T12:05:01.831Z,99173.80
2022-12-11T12:07:44.029Z,99169.60
2022-12-11T12:10:23.625Z,99164.60
2022-12-11T12:13:23.949Z,99165.40
2022-12-11T12:16:03.008Z,99166.80
2022-12-11T12:18:47.366Z,99163.20
2022-12-11T12:21:32.325Z,99160.40
2022-12-11T12:24:24.276Z,99160.00
2022-12-11T12:27:02.490Z,99155.60
2022-12-11T12:29:49.027Z,99158.60
2022-12-11T12:32:29.293Z,99157.40
2022-12-11T12:35:17.780Z,99155.20
2022-12-11T12:38:04.130Z,99153.80
2022-12-11T12:40:47.416Z,99149.00
2022-12-11T12:43:49.628Z,99148.80
2022-12-11T12:46:32.292Z,99147.80
2022-12-11T12:49:06.826Z,99152.20
2022-12-11T12:51:40.197Z,99154.00
2022-12-11T12:54:17.042Z,99147.60
2022-12-11T12:56:50.902Z,99149.20
2022-12-11T12:59:29.141Z,99150.80
2022-12-11T13:02:04.555Z,99153.20
2022-12-11T13:04:59.445Z,99155.60
2022-12-11T13:07:35.327Z,99156.60
2022-12-11T13:10:24.380Z,99151.00
2022-12-11T13:12:57.873Z,99158.00
2022-12-11T13:15:39.299Z,99159.40
2022-12-11T13:18:36.629Z,99156.60
2022-12-11T13:21:34.822Z,99157.80
2022-12-11T13:24:29.331Z,99156.00
2022-12-11T13:27:24.195Z,99157.60
2022-12-11T13:30:22.568Z,99153.20
2022-12-11T13:33:04.501Z,99159.00
2022-12-11T13:35:38.438Z,99160.20
2022-12-11T13:38:20.778Z,99156.80
2022-12-11T13:40:57.814Z,99152.20
2022-12-11T13:43:34.529Z,99152.80
2022-12-11T13:46:10.869Z,99161.40
2022-12-11T13:48:52.011Z,99162.20
2022-12-11T13:51:27.294Z,99164.60
2022-12-11T13:54:20.104Z,99161.00
2022-12-11T13:57:03.482Z,99157.40
2022-12-11T13:59:42.433Z,99157.60
2022-12-11T14:02:22.801Z,99160.80
2022-12-11T14:04:56.915Z,99163.00
2022-12-11T14:07:33.303Z,99160.80
2022-12-11T14:10:11.095Z,99159.80
2022-12-11T14:12:47.440Z,99160.20
2022-12-11T14:15:21.660Z,99164.20
2022-12-11T14:17:55.689Z,99170.00
2022-12-11T14:20:33.341Z,99173.00
2022-12-11T14:23:18.343Z,99170.60
2022-12-11T14:26:00.679Z,99169.20
2022-12-11T14:28:40.355Z,99169.20
2022-12-11T14:31:17.707Z,99166.80
2022-12-11T14:33:54.605Z,99164.60
2022-12-11T14:36:27.829Z,99164.80
2022-12-11T14:39:06.170Z,99158.60
2022-12-11T14:41:48.721Z,99156.60
2022-12-11T14:44:24.937Z,99155.20
2022-12-11T14:47:00.077Z,99157.40
2022-12-11T14:49:40.529Z,99145.40
2022-12-11T14:52:17.303Z,99150.60
2022-12-11T14:54:54.528Z,99146.20
2022-12-11T14:57:30.455Z,99142.40
2022-12-11T15:00:04.415Z,99148.20
2022-12-11T15:02:39.708Z,99154.60
2022-12-11T15:05:23.059Z,99158.80
2022-12-11T15:08:05.030Z,99153.00
2022-12-11T15:10:43.358Z,99156.20
2022-12-11T15:13:23.914Z,99159.20
2022-12-11T15:15:56.090Z,99165.40
2022-12-11T15:18:31.514Z,99161.80
2022-12-11T15:21:09.643Z,99156.40
2022-12-11T15:23:54.149Z,99157.60
2022-12-11T15:26:40.578Z,99164.80
2022-12-11T15:29:34.339Z,99166.40
2022-12-11T15:32:19.960Z,99168.20
2022-12-11T15:34:55.102Z,99165.40
2022-12-11T15:37:29.901Z,99164.20
2022-12-11T15:40:05.901Z,99165.00
2022-12-11T15:42:41.964Z,99163.60
2022-12-11T15:45:22.434Z,99163.20
2022-12-11T15:47:54.121Z,99165.80
2022-12-11T15:50:28.930Z,99166.80
2022-12-11T15:53:01.902Z,99167.00
2022-12-11T15:55:35.611Z,99160.80
2022-12-11T15:58:15.247Z,99156.20
2022-12-11T16:00:48.577Z,99154.80
2022-12-11T16:03:24.628Z,99153.20
2022-12-11T16:05:57.623Z,99158.00
2022-12-11T16:08:30.569Z,99163.80
2022-12-11T16:11:03.709Z,99163.80
2022-12-11T16:13:36.607Z,99159.60
2022-12-11T16:16:10.384Z,99159.60
2022-12-11T16:18:43.629Z,99154.40
2022-12-11T16:21:21.210Z,99159.80
2022-12-11T16:23:54.688Z,99156.80
2022-12-11T16:26:28.042Z,99155.20
2022-12-11T16:29:00.888Z,99151.80
2022-12-11T16:31:33.848Z,99157.80
2022-12-11T16:34:06.794Z,99153.80
2022-12-11T16:36:39.783Z,99151.20
2022-12-11T16:39:15.363Z,99147.00
2022-12-11T16:41:48.389Z,99145.20
2022-12-11T16:44:24.618Z,99147.00
2022-12-11T16:46:58.276Z,99148.60
2022-12-11T16:49:32.159Z,99147.80
2022-12-11T16:52:06.390Z,99149.20
2022-12-11T16:54:39.388Z,99142.20
2022-12-11T16:57:12.473Z,99151.80
2022-12-11T16:59:45.396Z,99147.00
2022-12-11T17:02:18.560Z,99147.00
2022-12-11T17:04:54.034Z,99151.40
2022-12-11T17:07:27.466Z,99149.00
2022-12-11T17:10:02.025Z,99144.20
2022-12-11T17:12:35.322Z,99146.40
2022-12-11T17:15:10.455Z,99142.20
2022-12-11T17:17:43.517Z,99138.40
2022-12-11T17:20:18.330Z,99142.00
2022-12-11T17:22:51.299Z,99136.40
2022-12-11T17:25:24.226Z,99139.20
2022-12-11T17:27:58.179Z,99138.40
2022-12-11T17:30:31.171Z,99145.40
2022-12-11T17:33:04.775Z,99147.00
2022-12-11T17:35:37.918Z,99147.20
2022-12-11T17:38:10.908Z,99146.00
2022-12-11T17:40:46.134Z,99145.20
2022-12-11T17:43:19.327Z,99146.20
2022-12-11T17:45:55.350Z,99145.60
2022-12-11T17:48:28.421Z,99142.40
2022-12-11T17:51:04.428Z,99145.80
2022-12-11T17:53:37.827Z,99145.20
2022-12-11T17:56:12.623Z,99142.00
2022-12-11T17:58:45.702Z,99147.00
2022-12-11T18:01:18.904Z,99152.00
2022-12-11T18:03:52.070Z,99148.20
2022-12-11T18:06:25.233Z,99152.60
2022-12-11T18:08:58.262Z,99147.60
2022-12-11T18:11:31.487Z,99149.40
2022-12-11T18:14:04.475Z,99148.00
2022-12-11T18:16:39.637Z,99148.60
2022-12-11T18:19:12.508Z,99148.40
2022-12-11T18:21:47.595Z,99148.80
2022-12-11T18:24:20.761Z,99148.20
2022-12-11T18:26:53.866Z,99157.40
2022-12-11T18:29:26.875Z,99161.00
2022-12-11T18:32:00.172Z,99153.80
2022-12-11T18:34:33.222Z,99161.80
2022-12-11T18:37:06.132Z,99152.60
2022-12-11T18:39:39.041Z,99161.80
2022-12-11T18:42:32.143Z,99152.60
2022-12-11T18:45:05.098Z,99146.00
2022-12-11T18:47:38.631Z,99154.20
2022-12-11T18:50:12.006Z,99157.00
2022-12-11T18:52:44.838Z,99155.40
2022-12-11T18:55:17.640Z,99151.60
2022-12-11T18:57:50.427Z,99144.40
2022-12-11T19:00:24.168Z,99148.40
2022-12-11T19:02:57.227Z,99152.00
2022-12-11T19:05:30.208Z,99149.20
2022-12-11T19:08:03.365Z,99148.40
2022-12-11T19:10:41.442Z,99152.20
2022-12-11T19:13:15.254Z,99142.20
2022-12-11T19:15:48.606Z,99141.40
2022-12-11T19:18:21.471Z,99140.00
2022-12-11T19:21:03.153Z,99136.60
2022-12-11T19:23:41.340Z,99136.00
2022-12-11T19:26:18.571Z,99135.40
2022-12-11T19:28:52.885Z,99133.20
2022-12-11T19:31:27.591Z,99133.80
2022-12-11T19:34:01.397Z,99134.20
2022-12-11T19:36:35.235Z,99130.20
2022-12-11T19:39:13.050Z,99132.00
2022-12-11T19:41:46.954Z,99138.80
2022-12-11T19:44:19.891Z,99137.60
2022-12-11T19:46:53.197Z,99139.60
2022-12-11T19:49:26.158Z,99139.80
2022-12-11T19:51:59.031Z,99135.40
2022-12-11T19:54:32.541Z,99138.00
2022-12-11T19:57:05.510Z,99139.20
2022-12-11T19:59:38.348Z,99136.40
2022-12-11T20:02:13.087Z,99131.80
2022-12-11T20:04:46.003Z,99130.40
2022-12-11T20:07:19.201Z,99133.60
2022-12-11T20:09:52.121Z,99135.40
2022-12-11T20:12:25.054Z,99135.40
2022-12-11T20:14:58.004Z,99137.80
2022-12-11T20:17:31.554Z,99136.80
2022-12-11T20:20:05.175Z,99137.20
2022-12-11T20:22:38.183Z,99126.20
2022-12-11T20:25:12.302Z,99134.40
2022-12-11T20:27:45.499Z,99132.00
2022-12-11T20:30:19.556Z,99128.40
2022-12-11T20:32:52.467Z,99120.20
2022-12-11T20:35:26.560Z,99124.40
2022-12-11T20:37:59.361Z,99122.40
2022-12-11T20:40:32.346Z,99130.40
2022-12-11T20:43:05.806Z,99129.20
2022-12-11T20:45:38.805Z,99131.40
2022-12-11T20:48:12.284Z,99127.00
2022-12-11T20:50:45.171Z,99127.00
2022-12-11T20:53:17.982Z,99126.40
2022-12-11T20:55:50.902Z,99125.80
2022-12-11T20:58:24.166Z,99123.20
2022-12-11T21:00:58.742Z,99120.40
2022-12-11T21:03:34.522Z,99114.60
2022-12-11T21:06:18.163Z,99113.60
2022-12-11T21:08:51.072Z,99113.80
2022-12-11T21:11:24.810Z,99112.60
2022-12-11T21:13:58.275Z,99110.60
2022-12-11T21:16:31.271Z,99102.00
2022-12-11T21:19:04.225Z,99104.00
2022-12-11T21:21:39.983Z,99101.00
2022-12-11T21:24:18.816Z,99104.40
2022-12-11T21:26:52.215Z,99106.00
2022-12-11T21:29:27.719Z,99098.80
2022-12-11T21:32:01.269Z,99103.80
2022-12-11T21:34:34.136Z,99106.20
2022-12-11T21:37:07.043Z,99109.20
2022-12-11T21:39:40.466Z,99114.80
2022-12-11T21:42:13.512Z,99109.80
2022-12-11T21:47:39.702Z,99108.00
2022-12-11T21:50:12.943Z,99110.20
2022-12-11T21:52:45.875Z,99114.00
2022-12-11T21:55:19.531Z,99114.00
2022-12-11T21:57:52.360Z,99113.00
2022-12-11T22:00:25.967Z,99109.40
2022-12-11T22:02:58.858Z,99111.00
2022-12-11T22:05:31.883Z,99116.60
2022-12-11T22:08:04.783Z,99109.20
2022-12-11T22:10:37.676Z,99104.60
2022-12-11T22:13:10.759Z,99107.80
2022-12-11T22:15:43.794Z,99106.20
2022-12-11T22:18:16.738Z,99110.20
2022-12-11T22:20:50.331Z,99105.60
2022-12-11T22:23:23.880Z,99106.80
2022-12-11T22:25:57.390Z,99109.40
2022-12-11T22:28:30.659Z,99111.20
2022-12-11T22:31:03.948Z,99108.00
2022-12-11T22:33:36.938Z,99102.60
2022-12-11T22:36:11.533Z,99107.80
2022-12-11T22:38:44.766Z,99107.00
2022-12-11T22:41:22.523Z,99107.80
2022-12-11T22:43:56.400Z,99106.60
2022-12-11T22:46:32.458Z,99106.80
2022-12-11T22:49:05.517Z,99107.00
2022-12-11T22:51:39.049Z,99112.20
2022-12-11T22:54:12.262Z,99113.60
2022-12-11T22:56:45.295Z,99114.80
2022-12-11T22:59:18.241Z,99108.60
2022-12-11T23:01:51.218Z,99106.80
2022-12-11T23:04:24.088Z,99111.80
2022-12-11T23:06:56.966Z,99102.80
2022-12-11T23:09:29.869Z,99109.40
2022-12-11T23:12:03.452Z,99107.20
2022-12-11T23:14:36.373Z,99107.80
2022-12-11T23:17:09.244Z,99102.80
2022-12-11T23:19:42.230Z,99105.40
2022-12-11T23:22:15.355Z,99108.40
2022-12-11T23:24:48.364Z,99103.00
2022-12-11T23:27:21.620Z,99100.20
2022-12-11T23:29:55.310Z,99094.60
2022-12-11T23:32:28.250Z,99096.80
2022-12-11T23:35:01.570Z,99095.20
2022-12-11T23:37:35.311Z,99094.60
2022-12-11T23:40:10.506Z,99101.40
2022-12-11T23:42:43.362Z,99099.20
2022-12-11T23:45:16.313Z,99093.40
2022-12-11T23:47:49.211Z,99096.60
2022-12-11T23:50:22.353Z,99095.40
2022-12-11T23:52:55.306Z,99098.60
2022-12-11T23:55:28.850Z,99097.40
2022-12-11T23:58:01.898Z,99098.40
